Time;durP1;ratioP1;P1;durP2;ratioP2;P2;SDS_P1;SDS_P2;PMS_P1;PMS_P2;Temp;Humidity;BMP_temperature;BMP_pressure;BME280_temperature;BME280_humidity;BME280_pressure;Samples;Min_cycle;Max_cycle;Signal;HPM_P1;HPM_P2
2023/03/03 00:00:35;;;;;;;99.82;25.67;;;;;;;;;;5074280;28;20210;-66
2023/03/03 00:03:05;;;;;;;104.20;29.10;;;;;;;;;;5074487;28;20227;-66
2023/03/03 00:05:33;;;;;;;103.25;29.88;;;;;;;;;;5074399;28;20235;-66
2023/03/03 00:08:01;;;;;;;102.32;27.73;;;;;;;;;;5074229;28;20215;-66
2023/03/03 00:10:28;;;;;;;101.70;29.88;;;;;;;;;;5073892;28;20216;-66
2023/03/03 00:12:55;;;;;;;101.90;28.92;;;;;;;;;;5074000;28;20218;-66
2023/03/03 00:15:23;;;;;;;107.60;29.95;;;;;;;;;;5074241;28;20222;-66
2023/03/03 00:17:51;;;;;;;96.05;29.10;;;;;;;;;;5074132;28;20214;-66
2023/03/03 00:20:32;;;;;;;98.65;26.73;;;;;;;;;;5074027;28;20211;-66
2023/03/03 00:23:08;;;;;;;102.10;29.55;;;;;;;;;;5073900;28;20206;-66
2023/03/03 00:25:35;;;;;;;96.95;29.40;;;;;;;;;;5073788;28;20243;-66
2023/03/03 00:28:02;;;;;;;99.65;29.85;;;;;;;;;;5074011;28;20258;-66
2023/03/03 00:30:29;;;;;;;101.10;28.27;;;;;;;;;;5073871;28;20211;-66
2023/03/03 00:32:57;;;;;;;102.30;29.58;;;;;;;;;;5073800;28;20231;-66
2023/03/03 00:35:25;;;;;;;97.35;28.75;;;;;;;;;;5073802;28;20227;-66
2023/03/03 00:37:55;;;;;;;104.15;29.65;;;;;;;;;;5073833;28;20221;-66
2023/03/03 00:40:24;;;;;;;100.70;28.17;;;;;;;;;;5073795;28;20205;-66
2023/03/03 00:42:53;;;;;;;99.20;29.65;;;;;;;;;;5073673;28;20577;-66
2023/03/03 00:45:26;;;;;;;95.53;29.90;;;;;;;;;;5073518;28;20226;-66
2023/03/03 00:47:54;;;;;;;101.97;28.15;;;;;;;;;;5073578;28;20210;-66
2023/03/03 00:50:29;;;;;;;104.65;27.77;;;;;;;;;;5073072;28;20613;-66
2023/03/03 00:53:02;;;;;;;109.22;30.92;;;;;;;;;;5072627;28;20223;-66
2023/03/03 00:55:31;;;;;;;103.55;28.00;;;;;;;;;;5073462;28;20352;-66
2023/03/03 00:57:58;;;;;;;104.28;29.98;;;;;;;;;;5073322;28;20302;-66
2023/03/03 01:00:25;;;;;;;105.13;28.83;;;;;;;;;;5073014;28;20238;-66
2023/03/03 01:02:52;;;;;;;95.45;28.67;;;;;;;;;;5073097;28;20205;-66
2023/03/03 01:05:20;;;;;;;98.45;28.95;;;;;;;;;;5073358;28;20227;-66
2023/03/03 01:07:47;;;;;;;96.53;28.23;;;;;;;;;;5073299;28;20224;-66
2023/03/03 01:10:14;;;;;;;100.75;29.02;;;;;;;;;;5072819;28;20203;-66
2023/03/03 01:12:43;;;;;;;96.95;29.38;;;;;;;;;;5072988;28;20202;-66
2023/03/03 01:15:11;;;;;;;99.80;27.13;;;;;;;;;;5072897;28;20716;-66
2023/03/03 01:17:39;;;;;;;100.88;29.38;;;;;;;;;;5072854;28;20209;-66
2023/03/03 01:20:07;;;;;;;100.05;29.85;;;;;;;;;;5072370;28;20336;-66
2023/03/03 01:22:34;;;;;;;102.07;29.58;;;;;;;;;;5073009;28;20243;-66
2023/03/03 01:25:02;;;;;;;95.07;27.83;;;;;;;;;;5072526;28;20670;-66
2023/03/03 01:27:29;;;;;;;99.55;28.83;;;;;;;;;;5072792;28;20203;-66
2023/03/03 01:29:58;;;;;;;102.35;28.98;;;;;;;;;;5072234;28;20201;-66
2023/03/03 01:32:25;;;;;;;101.10;29.77;;;;;;;;;;5072643;28;20227;-66
2023/03/03 01:34:52;;;;;;;98.40;28.33;;;;;;;;;;5072556;28;20221;-66
2023/03/03 01:37:19;;;;;;;105.50;30.90;;;;;;;;;;5072489;28;20311;-66
2023/03/03 01:39:48;;;;;;;104.75;29.10;;;;;;;;;;5072207;28;20214;-66
2023/03/03 01:42:15;;;;;;;103.75;28.40;;;;;;;;;;5072417;28;20206;-66
2023/03/03 01:44:43;;;;;;;103.90;28.27;;;;;;;;;;5072566;28;20202;-66
2023/03/03 01:47:12;;;;;;;105.35;29.00;;;;;;;;;;5072523;28;20214;-66
2023/03/03 01:49:41;;;;;;;97.75;26.67;;;;;;;;;;5071964;28;20210;-66
2023/03/03 01:52:13;;;;;;;97.30;27.67;;;;;;;;;;5072313;28;20216;-66
2023/03/03 01:54:42;;;;;;;100.35;26.98;;;;;;;;;;5072100;28;20229;-66
2023/03/03 01:57:13;;;;;;;106.93;30.25;;;;;;;;;;5072379;28;20686;-66
2023/03/03 01:59:43;;;;;;;99.75;28.38;;;;;;;;;;5072071;28;20207;-66
2023/03/03 02:02:12;;;;;;;114.63;29.50;;;;;;;;;;5072397;28;20216;-66
2023/03/03 02:04:39;;;;;;;104.72;28.75;;;;;;;;;;5071223;28;20198;-66
2023/03/03 02:07:09;;;;;;;103.22;28.90;;;;;;;;;;5071935;28;20249;-66
2023/03/03 02:09:40;;;;;;;106.07;29.38;;;;;;;;;;5071612;28;20209;-66
2023/03/03 02:12:08;;;;;;;101.85;28.98;;;;;;;;;;5072184;28;20225;-66
2023/03/03 02:14:35;;;;;;;108.22;29.58;;;;;;;;;;5071780;28;20709;-66
2023/03/03 02:17:02;;;;;;;102.10;28.83;;;;;;;;;;5072314;28;20232;-66
2023/03/03 02:19:35;;;;;;;102.90;29.73;;;;;;;;;;5071556;28;20212;-66
2023/03/03 02:22:02;;;;;;;102.35;30.83;;;;;;;;;;5071687;28;20205;-66
2023/03/03 02:24:32;;;;;;;101.03;29.15;;;;;;;;;;5071972;28;20587;-66
2023/03/03 02:27:00;;;;;;;104.45;29.80;;;;;;;;;;5071688;28;20226;-66
2023/03/03 02:29:27;;;;;;;100.32;29.17;;;;;;;;;;5071296;28;20217;-66
2023/03/03 02:31:55;;;;;;;97.95;28.15;;;;;;;;;;5071767;28;20307;-66
2023/03/03 02:34:22;;;;;;;97.70;27.20;;;;;;;;;;5071615;28;20227;-66
2023/03/03 02:36:49;;;;;;;100.30;30.27;;;;;;;;;;5071468;28;20222;-66
2023/03/03 02:39:18;;;;;;;102.88;31.85;;;;;;;;;;5071439;28;20211;-66
2023/03/03 02:41:46;;;;;;;104.75;30.05;;;;;;;;;;5071798;28;20206;-66
2023/03/03 02:44:15;;;;;;;105.35;31.00;;;;;;;;;;5071619;28;20302;-66
2023/03/03 02:46:44;;;;;;;109.97;30.50;;;;;;;;;;5069639;28;20230;-66
2023/03/03 02:49:13;;;;;;;104.40;29.58;;;;;;;;;;5071181;28;20217;-66
2023/03/03 02:51:40;;;;;;;104.43;28.95;;;;;;;;;;5071411;28;20210;-66
2023/03/03 02:54:08;;;;;;;106.68;30.17;;;;;;;;;;5071326;28;20220;-66
2023/03/03 02:56:35;;;;;;;102.30;28.00;;;;;;;;;;5071301;28;20221;-66
2023/03/03 02:59:03;;;;;;;104.78;29.40;;;;;;;;;;5071063;28;20220;-66
2023/03/03 03:01:35;;;;;;;106.18;31.10;;;;;;;;;;5071626;28;20679;-66
2023/03/03 03:04:02;;;;;;;102.00;29.88;;;;;;;;;;5071500;28;20201;-66
2023/03/03 03:06:30;;;;;;;99.25;27.40;;;;;;;;;;5071280;28;20739;-66
2023/03/03 03:08:57;;;;;;;110.88;32.03;;;;;;;;;;5071102;28;20201;-66
2023/03/03 03:11:24;;;;;;;107.05;30.77;;;;;;;;;;5071238;28;20205;-66
2023/03/03 03:13:51;;;;;;;102.50;29.33;;;;;;;;;;5071424;28;20225;-66
2023/03/03 03:16:18;;;;;;;102.45;29.35;;;;;;;;;;5073682;28;20227;-66
2023/03/03 03:18:49;;;;;;;102.03;31.27;;;;;;;;;;5074922;28;20209;-66
2023/03/03 03:21:16;;;;;;;99.55;28.83;;;;;;;;;;5075044;28;20777;-66
2023/03/03 03:23:43;;;;;;;98.78;29.85;;;;;;;;;;5075100;28;20233;-66
2023/03/03 03:26:11;;;;;;;103.43;31.98;;;;;;;;;;5074827;28;20242;-66
2023/03/03 03:28:38;;;;;;;102.55;28.52;;;;;;;;;;5074500;28;20213;-66
2023/03/03 03:31:06;;;;;;;99.13;28.10;;;;;;;;;;5074724;28;20202;-66
2023/03/03 03:33:33;;;;;;;99.65;28.52;;;;;;;;;;5074858;28;20213;-66
2023/03/03 03:36:02;;;;;;;105.28;29.25;;;;;;;;;;5075058;28;20232;-66
2023/03/03 03:38:30;;;;;;;105.22;28.27;;;;;;;;;;5074596;28;20232;-66
2023/03/03 03:40:57;;;;;;;106.88;30.83;;;;;;;;;;5074863;28;20201;-66
2023/03/03 03:43:25;;;;;;;106.22;30.80;;;;;;;;;;5075012;28;20664;-66
2023/03/03 03:45:52;;;;;;;103.60;30.10;;;;;;;;;;5074661;28;20226;-66
2023/03/03 03:48:19;;;;;;;104.60;30.85;;;;;;;;;;5074560;28;20208;-67
2023/03/03 03:50:47;;;;;;;108.90;32.90;;;;;;;;;;5074601;28;20203;-67
2023/03/03 03:53:16;;;;;;;101.72;28.73;;;;;;;;;;5074238;28;20210;-67
2023/03/03 03:55:43;;;;;;;114.88;30.73;;;;;;;;;;5074249;28;20231;-67
2023/03/03 03:58:12;;;;;;;106.28;31.20;;;;;;;;;;5074430;28;20709;-67
2023/03/03 04:00:40;;;;;;;107.22;30.83;;;;;;;;;;5074373;28;20205;-67
2023/03/03 04:03:07;;;;;;;107.85;30.42;;;;;;;;;;5074506;28;20206;-67
2023/03/03 04:05:34;;;;;;;108.70;29.73;;;;;;;;;;5074079;28;20230;-67
2023/03/03 04:08:01;;;;;;;103.30;29.80;;;;;;;;;;5074436;28;20207;-67
2023/03/03 04:10:30;;;;;;;103.07;30.17;;;;;;;;;;5074166;28;20582;-67
2023/03/03 04:12:57;;;;;;;108.25;30.25;;;;;;;;;;5074158;28;20210;-67
2023/03/03 04:15:25;;;;;;;103.43;29.27;;;;;;;;;;5074141;28;20237;-67
2023/03/03 04:17:52;;;;;;;105.07;30.73;;;;;;;;;;5074112;28;20208;-67
2023/03/03 04:20:19;;;;;;;111.03;31.70;;;;;;;;;;5073657;28;20215;-67
2023/03/03 04:22:46;;;;;;;167.10;42.70;;;;;;;;;;5074015;28;20206;-67
2023/03/03 04:25:15;;;;;;;139.02;38.00;;;;;;;;;;5074079;28;20235;-67
2023/03/03 04:27:43;;;;;;;135.30;33.10;;;;;;;;;;5073080;28;20206;-67
2023/03/03 04:30:11;;;;;;;109.80;32.00;;;;;;;;;;5073526;28;20207;-67
2023/03/03 04:32:38;;;;;;;101.90;29.08;;;;;;;;;;5074258;28;20231;-67
2023/03/03 04:35:06;;;;;;;108.43;30.50;;;;;;;;;;5073566;28;20237;-67
2023/03/03 04:37:33;;;;;;;106.10;31.40;;;;;;;;;;5074044;28;20212;-64
2023/03/03 04:40:00;;;;;;;101.82;31.77;;;;;;;;;;5073484;28;20232;-68
2023/03/03 04:42:27;;;;;;;110.20;33.65;;;;;;;;;;5073705;28;20203;-67
2023/03/03 04:44:56;;;;;;;102.90;29.60;;;;;;;;;;5073560;28;20302;-67
2023/03/03 04:47:23;;;;;;;103.80;31.85;;;;;;;;;;5073583;28;20568;-67
2023/03/03 04:49:50;;;;;;;103.40;30.67;;;;;;;;;;5073402;28;20226;-67
2023/03/03 04:52:17;;;;;;;109.43;32.40;;;;;;;;;;5073689;28;20406;-67
2023/03/03 04:54:44;;;;;;;115.63;33.20;;;;;;;;;;5073506;28;20783;-67
2023/03/03 04:57:11;;;;;;;111.45;31.38;;;;;;;;;;5073505;28;20209;-67
2023/03/03 04:59:39;;;;;;;112.50;30.52;;;;;;;;;;5072916;28;20207;-67
2023/03/03 05:02:07;;;;;;;99.95;30.98;;;;;;;;;;5073520;28;20214;-67
2023/03/03 05:04:34;;;;;;;111.55;35.08;;;;;;;;;;5073522;28;20198;-67
2023/03/03 05:07:02;;;;;;;106.22;30.23;;;;;;;;;;5073215;28;20570;-67
2023/03/03 05:09:29;;;;;;;104.68;32.58;;;;;;;;;;5072864;28;20303;-67
2023/03/03 05:11:56;;;;;;;104.70;31.30;;;;;;;;;;5073116;28;20205;-67
2023/03/03 05:14:23;;;;;;;106.50;31.52;;;;;;;;;;5072862;28;20707;-67
2023/03/03 05:16:50;;;;;;;109.07;32.65;;;;;;;;;;5073220;28;20235;-67
2023/03/03 05:19:19;;;;;;;101.70;30.23;;;;;;;;;;5072851;28;20204;-67
2023/03/03 05:21:46;;;;;;;104.13;30.00;;;;;;;;;;5073049;28;20209;-67
2023/03/03 05:24:14;;;;;;;109.80;30.80;;;;;;;;;;5072838;28;20230;-66
2023/03/03 05:26:41;;;;;;;117.00;32.13;;;;;;;;;;5072664;28;20230;-67
2023/03/03 05:29:08;;;;;;;101.90;30.63;;;;;;;;;;5072529;28;20314;-66
2023/03/03 05:31:35;;;;;;;105.05;31.02;;;;;;;;;;5072968;28;20294;-67
2023/03/03 05:34:03;;;;;;;108.05;34.45;;;;;;;;;;5072664;28;20214;-67
2023/03/03 05:36:31;;;;;;;107.78;30.05;;;;;;;;;;5072594;28;20224;-67
2023/03/03 05:38:58;;;;;;;111.18;35.28;;;;;;;;;;5072171;28;20216;-67
2023/03/03 05:41:26;;;;;;;114.50;33.25;;;;;;;;;;5072541;28;20585;-67
2023/03/03 05:43:53;;;;;;;105.07;32.15;;;;;;;;;;5072689;28;20208;-67
2023/03/03 05:46:20;;;;;;;101.70;30.73;;;;;;;;;;5072287;28;20723;-67
2023/03/03 05:48:47;;;;;;;106.50;30.85;;;;;;;;;;5072121;28;20204;-67
2023/03/03 05:51:14;;;;;;;102.60;31.23;;;;;;;;;;5072457;28;20204;-67
2023/03/03 05:53:42;;;;;;;104.68;32.03;;;;;;;;;;5072398;28;20587;-67
2023/03/03 05:56:10;;;;;;;109.90;33.70;;;;;;;;;;5071952;28;20700;-67
2023/03/03 05:58:37;;;;;;;105.22;31.63;;;;;;;;;;5072044;28;20203;-67
2023/03/03 06:01:04;;;;;;;108.20;31.58;;;;;;;;;;5072380;28;20576;-67
2023/03/03 06:03:32;;;;;;;102.90;31.67;;;;;;;;;;5072236;28;20212;-67
2023/03/03 06:05:59;;;;;;;103.72;32.05;;;;;;;;;;5071847;28;20281;-67
2023/03/03 06:08:26;;;;;;;103.70;32.13;;;;;;;;;;5072011;28;20209;-67
2023/03/03 06:10:54;;;;;;;103.22;31.23;;;;;;;;;;5071858;28;20203;-67
2023/03/03 06:13:21;;;;;;;105.38;31.95;;;;;;;;;;5072017;28;20204;-67
2023/03/03 06:15:49;;;;;;;107.10;32.75;;;;;;;;;;5071860;28;20240;-67
2023/03/03 06:18:16;;;;;;;101.28;31.95;;;;;;;;;;5072179;28;20215;-67
2023/03/03 06:20:43;;;;;;;100.53;29.80;;;;;;;;;;5071701;28;20207;-67
2023/03/03 06:23:10;;;;;;;100.70;29.95;;;;;;;;;;5071785;28;20219;-67
2023/03/03 06:25:39;;;;;;;98.68;29.85;;;;;;;;;;5071625;28;20239;-67
2023/03/03 06:28:07;;;;;;;107.97;31.30;;;;;;;;;;5071727;28;20212;-67
2023/03/03 06:30:35;;;;;;;102.07;29.98;;;;;;;;;;5071612;28;20679;-67
2023/03/03 06:33:02;;;;;;;101.63;29.35;;;;;;;;;;5071597;28;20212;-67
2023/03/03 06:35:29;;;;;;;98.68;29.33;;;;;;;;;;5071503;28;20236;-66
2023/03/03 06:37:56;;;;;;;108.85;32.80;;;;;;;;;;5071899;28;20215;-67
2023/03/03 06:40:23;;;;;;;102.20;30.88;;;;;;;;;;5071639;28;20212;-67
2023/03/03 06:42:50;;;;;;;106.45;32.35;;;;;;;;;;5071788;28;20212;-67
2023/03/03 06:45:19;;;;;;;112.50;34.20;;;;;;;;;;5071736;28;20603;-67
2023/03/03 06:47:46;;;;;;;108.10;35.55;;;;;;;;;;5071592;28;20658;-67
2023/03/03 06:50:13;;;;;;;116.97;36.13;;;;;;;;;;5070693;28;20212;-67
2023/03/03 06:52:40;;;;;;;108.25;35.30;;;;;;;;;;5071436;28;20208;-67
2023/03/03 06:55:12;;;;;;;115.10;35.20;;;;;;;;;;5071491;28;20557;-67
2023/03/03 06:57:40;;;;;;;109.15;36.22;;;;;;;;;;5071616;28;20215;-67
2023/03/03 07:00:16;;;;;;;110.25;33.70;;;;;;;;;;5071214;28;20259;-67
2023/03/03 07:02:45;;;;;;;107.15;31.90;;;;;;;;;;5071319;28;20218;-67
2023/03/03 07:05:15;;;;;;;111.32;33.70;;;;;;;;;;5071212;28;20302;-67
2023/03/03 07:07:42;;;;;;;116.18;35.63;;;;;;;;;;5071465;28;20216;-67
2023/03/03 07:10:16;;;;;;;109.20;32.15;;;;;;;;;;5071255;28;20227;-67
2023/03/03 07:12:44;;;;;;;111.57;32.58;;;;;;;;;;5071312;28;20218;-67
2023/03/03 07:15:16;;;;;;;110.38;32.83;;;;;;;;;;5071005;28;20239;-67
2023/03/03 07:17:47;;;;;;;119.93;35.40;;;;;;;;;;5071489;28;20208;-67
2023/03/03 07:20:18;;;;;;;109.78;33.78;;;;;;;;;;5070877;28;20243;-67
2023/03/03 07:22:45;;;;;;;116.97;35.95;;;;;;;;;;5071240;28;20213;-66
2023/03/03 07:25:20;;;;;;;109.00;33.28;;;;;;;;;;5071110;28;20236;-66
2023/03/03 07:27:47;;;;;;;109.57;34.58;;;;;;;;;;5070983;28;20201;-67
2023/03/03 07:30:22;;;;;;;105.68;33.20;;;;;;;;;;5071037;28;20211;-67
2023/03/03 07:32:55;;;;;;;118.97;35.75;;;;;;;;;;5071268;28;20235;-65
2023/03/03 07:35:28;;;;;;;100.50;31.88;;;;;;;;;;5071090;28;20232;-67
2023/03/03 07:37:55;;;;;;;105.55;32.08;;;;;;;;;;5070960;28;20201;-67
2023/03/03 07:40:31;;;;;;;108.38;33.50;;;;;;;;;;5064035;28;20616;-67
2023/03/03 07:42:58;;;;;;;115.85;34.65;;;;;;;;;;5060942;28;20205;-66
2023/03/03 07:45:27;;;;;;;109.18;32.00;;;;;;;;;;5068797;28;20224;-66
2023/03/03 07:48:00;;;;;;;114.68;33.88;;;;;;;;;;5061675;28;20209;-66
2023/03/03 07:50:27;;;;;;;110.75;33.55;;;;;;;;;;5050578;28;20359;-66
2023/03/03 07:52:56;;;;;;;103.32;29.83;;;;;;;;;;5051174;28;20213;-66
2023/03/03 07:55:30;;;;;;;110.55;34.13;;;;;;;;;;5050904;28;20234;-66
2023/03/03 07:57:58;;;;;;;109.82;33.03;;;;;;;;;;5050878;28;20205;-65
2023/03/03 08:00:52;;;;;;;111.53;35.03;;;;;;;;;;5050518;28;20206;-65
2023/03/03 08:03:21;;;;;;;101.85;32.97;;;;;;;;;;5017521;28;20220;-64
2023/03/03 08:05:49;;;;;;;107.43;33.75;;;;;;;;;;5054367;28;20222;-65
2023/03/03 08:08:22;;;;;;;104.53;32.83;;;;;;;;;;5054327;28;20646;-65
2023/03/03 08:10:50;;;;;;;102.10;33.00;;;;;;;;;;5054088;28;20214;-65
2023/03/03 08:13:19;;;;;;;107.63;31.17;;;;;;;;;;5054241;28;20213;-65
2023/03/03 08:15:47;;;;;;;100.43;31.40;;;;;;;;;;5054023;28;20233;-65
2023/03/03 08:18:19;;;;;;;111.15;32.03;;;;;;;;;;5054112;28;20210;-65
2023/03/03 08:20:49;;;;;;;103.88;32.05;;;;;;;;;;5054285;28;20693;-65
2023/03/03 08:23:17;;;;;;;111.60;32.80;;;;;;;;;;5054153;28;20215;-65
2023/03/03 08:25:44;;;;;;;99.22;29.45;;;;;;;;;;5053773;28;20624;-65
2023/03/03 08:28:12;;;;;;;105.88;32.05;;;;;;;;;;5053805;28;20202;-65
2023/03/03 08:30:40;;;;;;;120.43;31.80;;;;;;;;;;5054060;28;20209;-65
2023/03/03 08:33:07;;;;;;;104.55;30.70;;;;;;;;;;5054079;28;20206;-65
2023/03/03 08:35:34;;;;;;;102.80;31.48;;;;;;;;;;5053577;28;20232;-65
2023/03/03 08:38:03;;;;;;;103.57;32.00;;;;;;;;;;5053697;28;20202;-65
2023/03/03 08:40:30;;;;;;;104.43;31.98;;;;;;;;;;5053394;28;20209;-65
2023/03/03 08:42:58;;;;;;;110.10;31.40;;;;;;;;;;5053792;28;20205;-65
2023/03/03 08:45:25;;;;;;;103.13;31.88;;;;;;;;;;5053702;28;20356;-65
2023/03/03 08:47:52;;;;;;;109.35;33.47;;;;;;;;;;5053517;28;20210;-65
2023/03/03 08:50:20;;;;;;;105.80;34.38;;;;;;;;;;5053317;28;20686;-65
2023/03/03 08:52:47;;;;;;;105.90;33.05;;;;;;;;;;5053486;28;20785;-65
2023/03/03 08:55:16;;;;;;;109.07;32.63;;;;;;;;;;5053180;28;20225;-65
2023/03/03 08:57:43;;;;;;;100.43;31.63;;;;;;;;;;5053359;28;20216;-65
2023/03/03 09:00:12;;;;;;;103.95;34.15;;;;;;;;;;5053209;28;20214;-65
2023/03/03 09:02:39;;;;;;;107.90;31.58;;;;;;;;;;5053391;28;20209;-65
2023/03/03 09:05:07;;;;;;;100.32;30.45;;;;;;;;;;5053172;28;20296;-65
2023/03/03 09:10:40;;;;;;;104.70;33.33;;;;;;;;;;5051661;28;20196;-66
2023/03/03 09:13:08;;;;;;;97.97;30.80;;;;;;;;;;5052674;28;20305;-65
2023/03/03 09:15:36;;;;;;;109.75;30.77;;;;;;;;;;5053059;28;20229;-65
2023/03/03 09:18:11;;;;;;;98.38;29.50;;;;;;;;;;5052980;28;20308;-65
2023/03/03 09:20:39;;;;;;;105.05;33.70;;;;;;;;;;5052657;28;20212;-65
2023/03/03 09:23:24;;;;;;;102.67;32.10;;;;;;;;;;5052998;28;20206;-66
2023/03/03 09:25:53;;;;;;;95.93;29.47;;;;;;;;;;5052796;28;20546;-65
2023/03/03 09:28:24;;;;;;;101.50;32.43;;;;;;;;;;5052938;28;20452;-65
2023/03/03 09:30:52;;;;;;;100.70;32.57;;;;;;;;;;5052715;28;20459;-68
2023/03/03 09:33:26;;;;;;;102.03;33.10;;;;;;;;;;5052757;28;20456;-66
2023/03/03 09:35:55;;;;;;;101.77;33.70;;;;;;;;;;5052760;28;20487;-66
2023/03/03 09:38:27;;;;;;;101.33;33.30;;;;;;;;;;5052484;28;20449;-66
2023/03/03 09:41:09;;;;;;;105.00;33.30;;;;;;;;;;5052594;28;20771;-66
2023/03/03 09:43:42;;;;;;;97.53;31.07;;;;;;;;;;5050467;28;20487;-66
2023/03/03 09:46:16;;;;;;;108.70;34.73;;;;;;;;;;5052723;28;20473;-66
2023/03/03 09:48:49;;;;;;;98.57;32.47;;;;;;;;;;5052158;28;20874;-66
2023/03/03 09:51:25;;;;;;;101.30;33.03;;;;;;;;;;5052636;28;20509;-66
2023/03/03 09:54:16;;;;;;;100.77;33.70;;;;;;;;;;5052611;28;20448;-66
2023/03/03 09:56:44;;;;;;;108.40;36.13;;;;;;;;;;5037434;28;20506;-66
2023/03/03 09:59:26;;;;;;;97.43;32.80;;;;;;;;;;5051819;28;20459;-66
2023/03/03 10:01:59;;;;;;;101.57;32.70;;;;;;;;;;5052315;28;20793;-66
2023/03/03 10:04:39;;;;;;;99.27;33.40;;;;;;;;;;5052370;28;20452;-66
2023/03/03 10:07:14;;;;;;;100.50;33.03;;;;;;;;;;5052433;28;21003;-66
2023/03/03 10:09:47;;;;;;;99.20;32.60;;;;;;;;;;5051561;28;20448;-66
2023/03/03 10:12:21;;;;;;;103.80;33.17;;;;;;;;;;5052277;28;20448;-66
2023/03/03 10:14:58;;;;;;;100.53;33.67;;;;;;;;;;5052095;28;20452;-66
2023/03/03 10:17:29;;;;;;;95.50;31.57;;;;;;;;;;5051868;28;20510;-66
2023/03/03 10:20:06;;;;;;;99.03;32.03;;;;;;;;;;5051544;28;20480;-66
2023/03/03 10:22:36;;;;;;;103.60;35.20;;;;;;;;;;5052150;28;20828;-66
2023/03/03 10:25:09;;;;;;;95.37;31.63;;;;;;;;;;5050958;28;20478;-66
2023/03/03 10:27:43;;;;;;;101.57;32.17;;;;;;;;;;5051888;28;20824;-66
2023/03/03 10:30:18;;;;;;;100.43;32.87;;;;;;;;;;5051539;28;20602;-66
2023/03/03 10:32:50;;;;;;;95.47;32.63;;;;;;;;;;5051598;28;20443;-65
2023/03/03 10:35:25;;;;;;;93.90;31.40;;;;;;;;;;5051657;28;20499;-66
2023/03/03 10:37:59;;;;;;;95.37;31.33;;;;;;;;;;5051539;28;21003;-66
2023/03/03 10:40:31;;;;;;;95.90;30.47;;;;;;;;;;5051537;28;20533;-66
2023/03/03 10:43:17;;;;;;;97.20;34.50;;;;;;;;;;5051428;28;20573;-66
2023/03/03 10:46:02;;;;;;;96.43;30.40;;;;;;;;;;5051585;28;20472;-66
2023/03/03 10:48:47;;;;;;;93.20;30.23;;;;;;;;;;5051390;28;20548;-66
2023/03/03 10:51:22;;;;;;;93.93;31.90;;;;;;;;;;5051195;28;20455;-66
2023/03/03 10:53:58;;;;;;;92.30;31.43;;;;;;;;;;5051370;28;20444;-66
2023/03/03 10:56:29;;;;;;;95.57;31.67;;;;;;;;;;5051435;28;20491;-66
2023/03/03 10:59:04;;;;;;;91.43;28.83;;;;;;;;;;5051170;28;20459;-66
2023/03/03 11:01:38;;;;;;;88.87;27.50;;;;;;;;;;5051411;28;20444;-66
2023/03/03 11:04:26;;;;;;;90.60;28.97;;;;;;;;;;5051586;28;20811;-66
2023/03/03 11:06:55;;;;;;;95.87;30.07;;;;;;;;;;5051588;28;20496;-66
2023/03/03 11:09:31;;;;;;;88.20;28.53;;;;;;;;;;5051034;28;20463;-66
2023/03/03 11:12:04;;;;;;;86.07;27.97;;;;;;;;;;5051260;28;20497;-66
2023/03/03 11:14:34;;;;;;;88.83;26.80;;;;;;;;;;5051582;28;20452;-64
2023/03/03 11:17:06;;;;;;;89.77;28.70;;;;;;;;;;5051440;28;20491;-66
2023/03/03 11:19:39;;;;;;;88.90;28.73;;;;;;;;;;5050811;28;20949;-66
2023/03/03 11:22:12;;;;;;;96.13;28.53;;;;;;;;;;5051290;28;20456;-66
2023/03/03 11:24:49;;;;;;;90.23;27.50;;;;;;;;;;5051163;28;20460;-66
2023/03/03 11:27:26;;;;;;;87.03;25.77;;;;;;;;;;5051357;28;20502;-66
2023/03/03 11:30:01;;;;;;;92.73;28.67;;;;;;;;;;5050841;28;20471;-66
2023/03/03 11:32:34;;;;;;;91.60;26.97;;;;;;;;;;5051206;28;20447;-66
2023/03/03 11:35:07;;;;;;;90.33;27.40;;;;;;;;;;5051135;28;20463;-66
2023/03/03 11:37:41;;;;;;;90.67;28.00;;;;;;;;;;5053828;28;20487;-66
2023/03/03 11:40:13;;;;;;;95.37;28.37;;;;;;;;;;5054700;28;20440;-66
2023/03/03 11:42:46;;;;;;;90.80;27.93;;;;;;;;;;5054760;28;20459;-66
2023/03/03 11:45:19;;;;;;;93.50;28.80;;;;;;;;;;5054770;28;20474;-66
2023/03/03 11:47:50;;;;;;;88.80;26.40;;;;;;;;;;5054716;28;20450;-66
2023/03/03 11:50:19;;;;;;;91.00;26.90;;;;;;;;;;5054651;28;20448;-66
2023/03/03 11:52:48;;;;;;;90.70;27.17;;;;;;;;;;5054790;28;20458;-66
2023/03/03 11:55:16;;;;;;;86.70;27.80;;;;;;;;;;5054574;28;20476;-66
2023/03/03 11:57:45;;;;;;;92.90;27.70;;;;;;;;;;5054395;28;21012;-67
2023/03/03 12:00:20;;;;;;;85.57;29.10;;;;;;;;;;5054256;28;20452;-67
2023/03/03 12:03:04;;;;;;;79.47;25.37;;;;;;;;;;5054913;28;20469;-65
2023/03/03 12:05:38;;;;;;;82.83;26.97;;;;;;;;;;5054418;28;20621;-67
2023/03/03 12:08:08;;;;;;;79.40;25.10;;;;;;;;;;5054247;28;20448;-65
2023/03/03 12:10:38;;;;;;;80.33;25.00;;;;;;;;;;5054182;28;20456;-67
2023/03/03 12:13:07;;;;;;;78.97;25.37;;;;;;;;;;5054438;28;20459;-65
2023/03/03 12:15:38;;;;;;;79.40;24.33;;;;;;;;;;5054282;28;20468;-67
2023/03/03 12:18:16;;;;;;;84.67;25.40;;;;;;;;;;5054258;28;20889;-67
2023/03/03 12:20:47;;;;;;;81.17;25.80;;;;;;;;;;5053961;28;20459;-67
2023/03/03 12:23:22;;;;;;;77.57;23.80;;;;;;;;;;5054136;28;20452;-67
2023/03/03 12:25:55;;;;;;;79.60;24.47;;;;;;;;;;5053602;28;20491;-67
2023/03/03 12:28:23;;;;;;;81.90;25.77;;;;;;;;;;5053805;28;20448;-67
2023/03/03 12:31:01;;;;;;;81.00;25.40;;;;;;;;;;5053610;28;20967;-67
2023/03/03 12:33:36;;;;;;;79.93;24.83;;;;;;;;;;5052894;28;20452;-67
2023/03/03 12:36:10;;;;;;;80.83;25.07;;;;;;;;;;5053950;28;20471;-67
2023/03/03 12:38:42;;;;;;;80.87;26.10;;;;;;;;;;5053560;28;20534;-67
2023/03/03 12:41:15;;;;;;;84.30;25.33;;;;;;;;;;5053293;28;20956;-68
2023/03/03 12:43:55;;;;;;;79.10;24.17;;;;;;;;;;5053595;28;20843;-67
2023/03/03 12:46:25;;;;;;;79.00;24.43;;;;;;;;;;5053570;28;20495;-67
2023/03/03 12:48:54;;;;;;;77.33;24.60;;;;;;;;;;5052409;28;20479;-68
2023/03/03 12:51:29;;;;;;;76.20;23.97;;;;;;;;;;5053551;28;20814;-67
2023/03/03 12:54:18;;;;;;;79.03;25.37;;;;;;;;;;5053524;28;20456;-67
2023/03/03 12:56:49;;;;;;;77.83;25.37;;;;;;;;;;5053620;28;20534;-67
2023/03/03 12:59:19;;;;;;;76.37;23.43;;;;;;;;;;5053125;28;20448;-66
2023/03/03 13:01:54;;;;;;;81.47;25.30;;;;;;;;;;5053564;28;20824;-66
2023/03/03 13:04:30;;;;;;;76.50;23.23;;;;;;;;;;5053309;28;20459;-66
2023/03/03 13:07:00;;;;;;;76.90;23.93;;;;;;;;;;5053345;28;20491;-66
2023/03/03 13:09:32;;;;;;;79.23;25.43;;;;;;;;;;5053092;28;20521;-68
2023/03/03 13:12:08;;;;;;;76.00;23.83;;;;;;;;;;5053195;28;20454;-68
2023/03/03 13:14:38;;;;;;;76.60;24.60;;;;;;;;;;5053315;28;20456;-68
2023/03/03 13:17:10;;;;;;;78.50;24.03;;;;;;;;;;5052822;28;20468;-66
2023/03/03 13:19:41;;;;;;;78.47;25.60;;;;;;;;;;5052913;28;20456;-66
2023/03/03 13:22:11;;;;;;;76.80;23.33;;;;;;;;;;5053051;28;20449;-66
2023/03/03 13:24:42;;;;;;;78.37;24.40;;;;;;;;;;5052958;28;20460;-66
2023/03/03 13:27:10;;;;;;;79.20;26.83;;;;;;;;;;5052696;28;20495;-66
2023/03/03 13:29:41;;;;;;;79.03;25.03;;;;;;;;;;5052424;28;20448;-66
2023/03/03 13:32:10;;;;;;;78.67;26.73;;;;;;;;;;5053004;28;20889;-67
2023/03/03 13:34:44;;;;;;;76.33;24.67;;;;;;;;;;5052681;28;20448;-67
2023/03/03 13:37:14;;;;;;;78.30;26.40;;;;;;;;;;5052894;28;20440;-67
2023/03/03 13:39:43;;;;;;;83.27;25.80;;;;;;;;;;5052585;28;20455;-67
2023/03/03 13:42:17;;;;;;;77.67;25.13;;;;;;;;;;5052937;28;20448;-67
2023/03/03 13:44:46;;;;;;;76.97;24.07;;;;;;;;;;5052910;28;20457;-67
2023/03/03 13:47:16;;;;;;;80.17;25.50;;;;;;;;;;5052611;28;20858;-67
2023/03/03 13:49:55;;;;;;;77.53;23.40;;;;;;;;;;5052117;28;20448;-66
2023/03/03 13:52:24;;;;;;;82.37;25.87;;;;;;;;;;5052404;28;20444;-67
2023/03/03 13:55:01;;;;;;;78.40;26.03;;;;;;;;;;5052397;28;20452;-66
2023/03/03 13:57:40;;;;;;;77.77;25.23;;;;;;;;;;5052481;28;20783;-66
2023/03/03 14:00:15;;;;;;;79.80;25.87;;;;;;;;;;5051733;28;20979;-66
2023/03/03 14:02:48;;;;;;;79.30;25.93;;;;;;;;;;5052182;28;20443;-66
2023/03/03 14:05:18;;;;;;;79.00;25.70;;;;;;;;;;5052047;28;20475;-64
2023/03/03 14:07:46;;;;;;;77.23;25.90;;;;;;;;;;5052201;28;21004;-67
2023/03/03 14:10:15;;;;;;;81.70;26.63;;;;;;;;;;5051760;28;20447;-64
2023/03/03 14:12:47;;;;;;;80.17;26.70;;;;;;;;;;5052004;28;20460;-65
2023/03/03 14:15:19;;;;;;;80.83;28.10;;;;;;;;;;5051947;28;20976;-67
2023/03/03 14:17:53;;;;;;;78.70;25.83;;;;;;;;;;5051915;28;20429;-67
2023/03/03 14:20:24;;;;;;;77.90;24.87;;;;;;;;;;5051811;28;20448;-65
2023/03/03 14:22:55;;;;;;;78.83;26.27;;;;;;;;;;5051984;28;20452;-65
2023/03/03 14:25:22;;;;;;;78.80;25.80;;;;;;;;;;5051772;28;20480;-65
2023/03/03 14:28:00;;;;;;;78.00;26.40;;;;;;;;;;5051760;28;20491;-67